createdAt,value
2023-02-19T00:01:04.356Z,98542.84
2023-02-19T00:04:21.983Z,98551.86
2023-02-19T00:07:34.244Z,98549.48
2023-02-19T00:10:46.145Z,98541.09
2023-02-19T00:14:01.617Z,98540.20
2023-02-19T00:17:13.904Z,98519.34
2023-02-19T00:20:26.165Z,98521.27
2023-02-19T00:23:38.922Z,98519.58
2023-02-19T00:26:52.404Z,98524.05
2023-02-19T00:30:04.487Z,98535.43
2023-02-19T00:33:16.495Z,98536.27
2023-02-19T00:36:29.579Z,98541.56
2023-02-19T00:39:42.086Z,98535.33
2023-02-19T00:42:54.075Z,98531.27
2023-02-19T00:46:06.174Z,98518.05
2023-02-19T00:49:23.539Z,98522.63
2023-02-19T00:52:35.695Z,98505.36
2023-02-19T00:55:47.852Z,98501.88
2023-02-19T00:59:00.190Z,98506.72
2023-02-19T01:02:12.303Z,98509.47
2023-02-19T01:05:24.384Z,98507.10
2023-02-19T01:08:37.602Z,98507.10
2023-02-19T01:11:50.264Z,98498.47
2023-02-19T01:15:02.765Z,98505.41
2023-02-19T01:18:15.410Z,98499.42
2023-02-19T01:21:30.491Z,98493.43
2023-02-19T01:24:42.702Z,98498.84
2023-02-19T01:27:54.655Z,98501.48
2023-02-19T01:31:11.617Z,98501.63
2023-02-19T01:34:23.934Z,98494.41
2023-02-19T01:37:36.222Z,98495.50
2023-02-19T01:40:48.278Z,98493.84
2023-02-19T01:44:09.488Z,98502.47
2023-02-19T01:47:24.102Z,98497.56
2023-02-19T01:50:40.162Z,98495.77
2023-02-19T01:53:56.920Z,98496.58
2023-02-19T01:57:12.429Z,98483.66
2023-02-19T02:00:25.981Z,98485.14
2023-02-19T02:03:40.687Z,98481.90
2023-02-19T02:06:56.970Z,98482.30
2023-02-19T02:10:24.488Z,98475.61
2023-02-19T02:13:38.840Z,98482.10
2023-02-19T02:17:01.628Z,98478.25
2023-02-19T02:20:30.645Z,98482.67
2023-02-19T02:23:59.856Z,98469.41
2023-02-19T02:27:45.555Z,98492.02
2023-02-19T02:31:01.522Z,98486.23
2023-02-19T02:34:19.172Z,98481.80
2023-02-19T02:37:34.558Z,98495.95
2023-02-19T02:40:49.262Z,98491.38
2023-02-19T02:44:01.547Z,98488.30
2023-02-19T02:47:17.841Z,98476.17
2023-02-19T02:50:33.832Z,98480.61
2023-02-19T02:54:05.593Z,98486.16
2023-02-19T02:57:20.097Z,98480.04
2023-02-19T03:00:42.102Z,98483.39
2023-02-19T03:03:59.166Z,98471.41
2023-02-19T03:07:15.562Z,98475.61
2023-02-19T03:10:32.956Z,98469.20
2023-02-19T03:14:00.821Z,98468.13
2023-02-19T03:17:35.142Z,98468.97
2023-02-19T03:20:52.676Z,98459.50
2023-02-19T03:24:20.424Z,98461.42
2023-02-19T03:27:36.300Z,98461.70
2023-02-19T03:30:52.584Z,98462.64
2023-02-19T03:34:09.969Z,98451.23
2023-02-19T03:37:26.475Z,98441.09
2023-02-19T03:40:42.723Z,98438.55
2023-02-19T03:44:01.709Z,98431.48
2023-02-19T03:47:20.379Z,98430.53
2023-02-19T03:50:38.644Z,98424.41
2023-02-19T03:54:03.452Z,98435.53
2023-02-19T03:57:21.031Z,98434.12
2023-02-19T04:00:39.794Z,98426.71
2023-02-19T04:03:56.942Z,98433.55
2023-02-19T04:07:09.680Z,98429.11
2023-02-19T04:10:23.956Z,98430.06
2023-02-19T04:13:40.835Z,98435.20
2023-02-19T04:16:57.720Z,98425.48
2023-02-19T04:20:13.680Z,98418.55
2023-02-19T04:23:30.253Z,98423.83
2023-02-19T04:26:43.847Z,98410.64
2023-02-19T04:29:55.819Z,98398.53
2023-02-19T04:33:07.964Z,98397.95
2023-02-19T04:36:19.930Z,98393.63
2023-02-19T04:39:31.898Z,98384.29
2023-02-19T04:42:43.929Z,98378.30
2023-02-19T04:45:55.994Z,98380.94
2023-02-19T04:49:08.058Z,98381.79
2023-02-19T04:52:20.136Z,98384.05
2023-02-19T04:55:32.016Z,98391.26
2023-02-19T04:58:44.645Z,98388.62
2023-02-19T05:01:57.493Z,98390.27
2023-02-19T05:05:09.859Z,98384.89
2023-02-19T05:08:21.934Z,98385.84
2023-02-19T05:11:33.980Z,98386.93
2023-02-19T05:14:45.901Z,98386.36
2023-02-19T05:17:57.866Z,98375.66
2023-02-19T05:21:10.886Z,98377.59
2023-02-19T05:24:24.448Z,98372.78
2023-02-19T05:27:38.401Z,98373.03
2023-02-19T05:30:51.154Z,98368.16
2023-02-19T05:34:04.516Z,98355.91
2023-02-19T05:37:16.398Z,98353.14
2023-02-19T05:40:28.471Z,98349.09
2023-02-19T05:43:40.898Z,98351.48
2023-02-19T05:46:52.992Z,98341.17
2023-02-19T05:50:04.979Z,98332.44
2023-02-19T05:53:17.270Z,98329.80
2023-02-19T05:56:37.707Z,98330.38
2023-02-19T05:59:49.789Z,98329.80
2023-02-19T06:03:02.285Z,98331.59
2023-02-19T06:06:16.466Z,98334.94
2023-02-19T06:09:28.346Z,98345.22
2023-02-19T06:12:40.328Z,98339.95
2023-02-19T06:15:52.318Z,98333.58
2023-02-19T06:19:04.330Z,98326.52
2023-02-19T06:22:18.229Z,98325.53
2023-02-19T06:25:30.169Z,98313.75
2023-02-19T06:28:42.202Z,98314.03
2023-02-19T06:31:54.242Z,98315.25
2023-02-19T06:35:06.489Z,98318.45
2023-02-19T06:38:18.460Z,98313.75
2023-02-19T06:41:30.367Z,98309.89
2023-02-19T06:44:42.315Z,98321.85
2023-02-19T06:47:54.303Z,98325.34
2023-02-19T06:51:06.321Z,98319.92
2023-02-19T06:54:18.345Z,98335.52
2023-02-19T06:57:30.348Z,98332.45
2023-02-19T07:00:42.507Z,98338.44
2023-02-19T07:03:55.110Z,98340.84
2023-02-19T07:07:07.276Z,98338.06
2023-02-19T07:10:21.238Z,98333.05
2023-02-19T07:13:33.751Z,98333.77
2023-02-19T07:16:47.476Z,98339.99
2023-02-19T07:19:59.670Z,98312.70
2023-02-19T07:23:11.722Z,98330.28
2023-02-19T07:26:25.373Z,98317.08
2023-02-19T07:29:52.191Z,98318.73
2023-02-19T07:33:10.110Z,98308.17
2023-02-19T07:36:23.740Z,98310.00
2023-02-19T07:39:36.239Z,98319.72
2023-02-19T07:42:48.313Z,98322.22
2023-02-19T07:46:03.127Z,98318.34
2023-02-19T07:49:15.269Z,98316.98
2023-02-19T07:52:27.395Z,98318.00
2023-02-19T07:55:40.892Z,98317.61
2023-02-19T07:58:52.999Z,98314.55
2023-02-19T08:02:19.716Z,98305.14
2023-02-19T08:05:32.450Z,98300.97
2023-02-19T08:08:44.840Z,98303.52
2023-02-19T08:12:11.348Z,98293.23
2023-02-19T08:15:23.692Z,98288.78
2023-02-19T08:18:37.934Z,98289.93
2023-02-19T08:21:50.630Z,98279.63
2023-02-19T08:25:02.632Z,98274.08
2023-02-19T08:28:16.356Z,98272.69
2023-02-19T08:31:28.514Z,98280.33
2023-02-19T08:34:41.211Z,98277.13
2023-02-19T08:37:53.309Z,98287.45
2023-02-19T08:41:07.415Z,98287.45
2023-02-19T08:44:19.808Z,98285.21
2023-02-19T08:47:31.924Z,98291.34
2023-02-19T08:50:44.690Z,98287.59
2023-02-19T08:53:56.715Z,98287.45
2023-02-19T08:57:09.222Z,98283.84
2023-02-19T09:00:23.396Z,98281.61
2023-02-19T09:03:35.476Z,98281.46
2023-02-19T09:06:47.516Z,98274.23
2023-02-19T09:09:59.712Z,98271.58
2023-02-19T09:13:11.939Z,98273.38
2023-02-19T09:16:23.936Z,98283.00
2023-02-19T09:19:37.028Z,98288.84
2023-02-19T09:22:49.045Z,98272.55
2023-02-19T09:26:09.431Z,98276.58
2023-02-19T09:29:22.098Z,98281.31
2023-02-19T09:32:36.298Z,98277.86
2023-02-19T09:35:48.417Z,98282.30
2023-02-19T09:39:01.302Z,98292.45
2023-02-19T09:42:19.903Z,98290.64
2023-02-19T09:45:34.046Z,98292.45
2023-02-19T09:48:46.124Z,98289.95
2023-02-19T09:52:03.024Z,98294.39
2023-02-19T09:55:23.414Z,98287.70
2023-02-19T09:58:39.881Z,98298.02
2023-02-19T10:01:56.763Z,98309.41
2023-02-19T10:05:10.916Z,98316.22
2023-02-19T10:08:26.169Z,98318.55
2023-02-19T10:11:38.272Z,98314.20
2023-02-19T10:14:55.414Z,98321.57
2023-02-19T10:18:05.541Z,98317.11
2023-02-19T10:21:21.770Z,98324.58
2023-02-19T10:24:38.334Z,98327.64
2023-02-19T10:27:50.475Z,98332.64
2023-02-19T10:31:06.153Z,98337.50
2023-02-19T10:34:28.496Z,98339.16
2023-02-19T10:37:41.296Z,98340.95
2023-02-19T10:40:54.272Z,98350.70
2023-02-19T10:44:11.320Z,98356.69
2023-02-19T10:47:27.818Z,98366.80
2023-02-19T10:50:44.888Z,98362.93
2023-02-19T10:54:09.195Z,98362.19
2023-02-19T10:57:38.094Z,98386.28
2023-02-19T11:00:50.303Z,98393.02
2023-02-19T11:04:20.875Z,98397.30
2023-02-19T11:07:33.123Z,98404.38
2023-02-19T11:10:48.165Z,98421.98
2023-02-19T11:14:02.867Z,98418.63
2023-02-19T11:17:25.054Z,98433.23
2023-02-19T11:20:37.906Z,98441.52
2023-02-19T11:23:53.781Z,98438.53
2023-02-19T11:27:07.077Z,98436.36
2023-02-19T11:30:46.445Z,98444.28
2023-02-19T11:34:05.422Z,98450.84
2023-02-19T11:37:20.849Z,98452.14
2023-02-19T11:40:47.758Z,98457.88
2023-02-19T11:44:16.599Z,98470.34
2023-02-19T11:47:55.142Z,98469.28
2023-02-19T11:51:28.679Z,98466.02
2023-02-19T11:54:54.614Z,98479.44
2023-02-19T11:58:15.390Z,98482.92
2023-02-19T12:01:38.694Z,98485.64
2023-02-19T12:05:33.940Z,98501.23
2023-02-19T12:09:26.659Z,98511.76
2023-02-19T12:12:51.541Z,98515.23
2023-02-19T12:16:23.883Z,98500.88
2023-02-19T12:20:02.446Z,98508.81
2023-02-19T12:23:37.178Z,98514.47
2023-02-19T12:26:57.913Z,98522.70
2023-02-19T12:30:42.891Z,98536.59
2023-02-19T12:34:19.661Z,98544.41
2023-02-19T12:37:42.654Z,98537.66
2023-02-19T12:41:04.928Z,98540.89
2023-02-19T12:44:22.892Z,98552.78
2023-02-19T12:47:39.725Z,98546.16
2023-02-19T12:50:56.534Z,98547.61
2023-02-19T12:54:15.341Z,98549.77
2023-02-19T12:57:31.573Z,98550.36
2023-02-19T13:00:50.460Z,98558.02
2023-02-19T13:04:18.757Z,98557.89
2023-02-19T13:07:37.652Z,98554.53
2023-02-19T13:10:54.510Z,98562.09
2023-02-19T13:14:10.521Z,98557.08
2023-02-19T13:17:31.274Z,98552.31
2023-02-19T13:20:48.772Z,98557.10
2023-02-19T13:24:06.301Z,98563.47
2023-02-19T13:27:44.710Z,98571.50
2023-02-19T13:31:16.286Z,98572.88
2023-02-19T13:34:40.105Z,98586.53
2023-02-19T13:37:54.061Z,98571.91
2023-02-19T13:41:06.756Z,98592.52
2023-02-19T13:44:27.631Z,98589.03
2023-02-19T13:48:09.865Z,98593.07
2023-02-19T13:51:53.845Z,98615.45
2023-02-19T13:55:49.809Z,98615.96
2023-02-19T13:59:06.880Z,98622.29
2023-02-19T14:02:21.194Z,98628.16
2023-02-19T14:06:07.148Z,98637.24
2023-02-19T14:09:50.730Z,98638.67
2023-02-19T14:13:03.264Z,98652.14
2023-02-19T14:16:37.793Z,98660.86
2023-02-19T14:19:59.907Z,98674.83
2023-02-19T14:23:24.776Z,98689.33
2023-02-19T14:26:39.937Z,98684.17
2023-02-19T14:29:52.759Z,98697.42
2023-02-19T14:33:11.028Z,98708.38
2023-02-19T14:36:45.298Z,98715.22
2023-02-19T14:39:58.022Z,98728.56
2023-02-19T14:43:10.788Z,98735.34
2023-02-19T14:46:31.818Z,98745.87
2023-02-19T14:49:48.494Z,98755.98
2023-02-19T14:53:04.444Z,98754.92
2023-02-19T14:56:26.456Z,98763.33
2023-02-19T14:59:38.827Z,98766.57
2023-02-19T15:02:51.100Z,98767.11
2023-02-19T15:06:08.140Z,98776.35
2023-02-19T15:09:22.657Z,98777.02
2023-02-19T15:12:39.437Z,98790.61
2023-02-19T15:15:53.663Z,98787.36
2023-02-19T15:19:08.826Z,98800.39
2023-02-19T15:22:25.330Z,98803.97
2023-02-19T15:25:41.419Z,98798.61
2023-02-19T15:29:03.224Z,98809.88
2023-02-19T15:32:26.394Z,98820.92
2023-02-19T15:35:38.909Z,98814.38
2023-02-19T15:38:51.821Z,98811.55
2023-02-19T15:42:08.389Z,98820.37
2023-02-19T15:45:27.654Z,98828.25
2023-02-19T15:48:45.282Z,98830.55
2023-02-19T15:52:02.181Z,98829.63
2023-02-19T15:55:38.615Z,98839.06
2023-02-19T15:58:54.820Z,98849.50
2023-02-19T16:02:07.683Z,98852.88
2023-02-19T16:05:30.264Z,98855.80
2023-02-19T16:08:44.514Z,98868.95
2023-02-19T16:11:59.499Z,98876.61
2023-02-19T16:15:24.280Z,98887.05
2023-02-19T16:18:36.998Z,98892.71
2023-02-19T16:21:51.163Z,98900.04
2023-02-19T16:25:06.740Z,98918.04
2023-02-19T16:28:25.227Z,98930.44
2023-02-19T16:31:37.625Z,98933.92
2023-02-19T16:34:51.449Z,98939.36
2023-02-19T16:38:07.386Z,98939.97
2023-02-19T16:41:22.828Z,98942.70
2023-02-19T16:44:42.847Z,98945.22
2023-02-19T16:47:55.058Z,98947.95
2023-02-19T16:51:07.272Z,98949.28
2023-02-19T16:54:20.882Z,98957.16
2023-02-19T16:57:33.175Z,98976.69
2023-02-19T17:00:46.120Z,98973.24
2023-02-19T17:04:02.426Z,98989.08
2023-02-19T17:07:17.309Z,98993.52
2023-02-19T17:10:32.239Z,99004.02
2023-02-19T17:13:45.859Z,99009.28
2023-02-19T17:16:59.324Z,99016.59
2023-02-19T17:20:27.593Z,99022.88
2023-02-19T17:23:37.922Z,99033.00
2023-02-19T17:26:49.883Z,99033.00
2023-02-19T17:30:10.660Z,99046.06
2023-02-19T17:33:22.764Z,99044.19
2023-02-19T17:36:38.110Z,99057.77
2023-02-19T17:39:50.310Z,99053.20
2023-02-19T17:43:02.722Z,99064.73
2023-02-19T17:46:19.674Z,99068.11
2023-02-19T17:53:30.928Z,99067.91
2023-02-19T17:56:45.720Z,99082.00
2023-02-19T18:00:00.360Z,99084.53
2023-02-19T18:03:12.687Z,99095.23
2023-02-19T18:06:25.418Z,99104.90
2023-02-19T18:09:37.518Z,99101.52
2023-02-19T18:12:49.909Z,99097.39
2023-02-19T18:16:02.038Z,99106.39
2023-02-19T18:19:15.169Z,99109.23
2023-02-19T18:22:28.144Z,99118.23
2023-02-19T18:25:40.556Z,99127.13
2023-02-19T18:28:52.541Z,99133.23
2023-02-19T18:32:04.897Z,99134.35
2023-02-19T18:35:17.763Z,99153.66
2023-02-19T18:38:29.827Z,99153.00
2023-02-19T18:41:41.847Z,99153.86
2023-02-19T18:44:57.245Z,99168.11
2023-02-19T18:48:10.284Z,99173.71
2023-02-19T18:51:23.460Z,99162.91
2023-02-19T18:54:37.011Z,99168.33
2023-02-19T18:57:49.276Z,99175.44
2023-02-19T19:01:01.452Z,99166.64
2023-02-19T19:04:14.207Z,99179.08
2023-02-19T19:07:27.022Z,99185.28
2023-02-19T19:10:39.053Z,99183.92
2023-02-19T19:13:53.077Z,99190.22
2023-02-19T19:17:05.686Z,99191.23
2023-02-19T19:20:19.051Z,99193.09
2023-02-19T19:23:31.263Z,99202.08
2023-02-19T19:26:49.223Z,99204.04
2023-02-19T19:30:01.912Z,99197.17
2023-02-19T19:33:14.192Z,99204.28
2023-02-19T19:36:29.052Z,99213.27
2023-02-19T19:39:41.507Z,99211.74
2023-02-19T19:42:56.782Z,99223.95
2023-02-19T19:46:14.221Z,99224.95
2023-02-19T19:49:28.458Z,99230.35
2023-02-19T19:52:40.837Z,99226.30
2023-02-19T19:55:53.674Z,99232.55
2023-02-19T19:59:06.477Z,99224.44
2023-02-19T20:02:19.715Z,99241.80
2023-02-19T20:05:32.251Z,99247.95
2023-02-19T20:08:44.582Z,99247.95
2023-02-19T20:11:58.514Z,99242.56
2023-02-19T20:15:12.866Z,99252.72
2023-02-19T20:18:26.790Z,99257.02
2023-02-19T20:21:39.809Z,99253.63
2023-02-19T20:24:55.408Z,99257.20
2023-02-19T20:28:07.884Z,99258.02
2023-02-19T20:31:20.220Z,99246.95
2023-02-19T20:34:32.662Z,99254.14
2023-02-19T20:37:47.984Z,99253.53
2023-02-19T20:41:00.206Z,99262.48
2023-02-19T20:44:12.806Z,99260.05
2023-02-19T20:47:25.101Z,99257.57
2023-02-19T20:50:37.649Z,99263.14
2023-02-19T20:53:50.472Z,99273.05
2023-02-19T20:57:05.448Z,99288.95
2023-02-19T21:00:20.269Z,99291.72
2023-02-19T21:03:32.595Z,99296.11
2023-02-19T21:06:44.948Z,99296.28
2023-02-19T21:09:57.371Z,99302.61
2023-02-19T21:13:09.520Z,99299.30
2023-02-19T21:16:21.996Z,99308.16
2023-02-19T21:19:34.023Z,99312.64
2023-02-19T21:22:46.030Z,99315.40
2023-02-19T21:25:58.138Z,99319.05
2023-02-19T21:29:11.923Z,99319.81
2023-02-19T21:32:24.083Z,99326.14
2023-02-19T21:35:36.714Z,99327.98
2023-02-19T21:38:48.826Z,99323.91
2023-02-19T21:42:02.552Z,99341.40
2023-02-19T21:45:15.815Z,99336.38
2023-02-19T21:48:28.295Z,99348.58
2023-02-19T21:51:42.651Z,99354.80
2023-02-19T21:54:54.985Z,99360.05
2023-02-19T21:58:07.117Z,99362.89
2023-02-19T22:01:19.656Z,99357.73
2023-02-19T22:04:31.714Z,99357.09
2023-02-19T22:07:44.474Z,99366.02
2023-02-19T22:10:56.639Z,99360.02
2023-02-19T22:14:09.979Z,99364.64
2023-02-19T22:17:22.074Z,99376.05
2023-02-19T22:20:34.846Z,99380.56
2023-02-19T22:23:49.669Z,99385.03
2023-02-19T22:27:04.974Z,99382.49
2023-02-19T22:30:19.420Z,99386.19
2023-02-19T22:33:31.359Z,99388.02
2023-02-19T22:36:43.823Z,99396.05
2023-02-19T22:39:55.932Z,99397.72
2023-02-19T22:43:07.991Z,99396.09
2023-02-19T22:46:24.323Z,99395.11
2023-02-19T22:49:36.322Z,99408.27
2023-02-19T22:52:48.595Z,99416.05
2023-02-19T22:56:00.595Z,99429.14
2023-02-19T22:59:12.550Z,99420.38
2023-02-19T23:02:24.484Z,99423.00
2023-02-19T23:05:36.462Z,99419.61
2023-02-19T23:08:48.764Z,99430.08
2023-02-19T23:12:07.374Z,99427.46
2023-02-19T23:15:19.817Z,99429.92
2023-02-19T23:18:31.853Z,99425.46
2023-02-19T23:21:44.238Z,99424.69
2023-02-19T23:24:56.234Z,99425.38
2023-02-19T23:28:08.639Z,99443.66
2023-02-19T23:31:21.392Z,99439.13
2023-02-19T23:34:33.679Z,99437.20
2023-02-19T23:37:45.876Z,99444.07
2023-02-19T23:40:57.881Z,99441.38
2023-02-19T23:44:10.294Z,99437.81
2023-02-19T23:47:22.620Z,99443.83
2023-02-19T23:50:34.622Z,99428.11
2023-02-19T23:53:46.599Z,99444.69
2023-02-19T23:56:59.317Z,99438.67
